sensor_id;sensor_type;location;lat;lon;timestamp;pressure;altitude;pressure_sealevel;temperature;humidity
81545;BME280;70990;50.618;7.346;2023-08-01T00:01:12;96744.59;;;15.43;93.69
81545;BME280;70990;50.618;7.346;2023-08-01T00:03:39;96733.75;;;15.45;94.17
81545;BME280;70990;50.618;7.346;2023-08-01T00:06:06;96713.41;;;15.39;93.46
81545;BME280;70990;50.618;7.346;2023-08-01T00:08:33;96738.06;;;15.46;93.89
81545;BME280;70990;50.618;7.346;2023-08-01T00:11:00;96722.59;;;15.45;93.83
81545;BME280;70990;50.618;7.346;2023-08-01T00:13:27;96725.69;;;15.47;93.98
81545;BME280;70990;50.618;7.346;2023-08-01T00:15:54;96712.44;;;15.42;94.42
81545;BME280;70990;50.618;7.346;2023-08-01T00:18:33;96711.94;;;15.43;94.12
81545;BME280;70990;50.618;7.346;2023-08-01T00:21:00;96701.09;;;15.45;94.40
81545;BME280;70990;50.618;7.346;2023-08-01T00:23:27;96707.16;;;15.44;94.53
81545;BME280;70990;50.618;7.346;2023-08-01T00:25:54;96718.56;;;15.46;94.63
81545;BME280;70990;50.618;7.346;2023-08-01T00:28:23;96665.13;;;15.42;94.50
81545;BME280;70990;50.618;7.346;2023-08-01T00:30:50;96672.31;;;15.48;94.15
81545;BME280;70990;50.618;7.346;2023-08-01T00:33:17;96661.19;;;15.48;94.27
81545;BME280;70990;50.618;7.346;2023-08-01T00:35:43;96628.25;;;15.47;94.11
81545;BME280;70990;50.618;7.346;2023-08-01T00:38:10;96645.44;;;15.45;94.43
81545;BME280;70990;50.618;7.346;2023-08-01T00:40:36;96632.56;;;15.48;93.94
81545;BME280;70990;50.618;7.346;2023-08-01T00:43:03;96646.28;;;15.51;93.96
81545;BME280;70990;50.618;7.346;2023-08-01T00:45:30;96673.34;;;15.51;94.03
81545;BME280;70990;50.618;7.346;2023-08-01T00:47:57;96681.31;;;15.58;93.50
81545;BME280;70990;50.618;7.346;2023-08-01T00:50:24;96671.94;;;15.55;93.68
81545;BME280;70990;50.618;7.346;2023-08-01T00:52:51;96673.25;;;15.60;93.28
81545;BME280;70990;50.618;7.346;2023-08-01T00:55:18;96671.25;;;15.60;93.66
81545;BME280;70990;50.618;7.346;2023-08-01T00:57:45;96668.81;;;15.68;93.33
81545;BME280;70990;50.618;7.346;2023-08-01T01:00:12;96651.19;;;15.56;93.63
81545;BME280;70990;50.618;7.346;2023-08-01T01:02:40;96671.50;;;15.62;93.53
81545;BME280;70990;50.618;7.346;2023-08-01T01:05:07;96669.09;;;15.70;93.03
81545;BME280;70990;50.618;7.346;2023-08-01T01:07:34;96667.09;;;15.70;93.27
81545;BME280;70990;50.618;7.346;2023-08-01T01:10:02;96675.16;;;15.68;93.47
81545;BME280;70990;50.618;7.346;2023-08-01T01:12:29;96662.28;;;15.71;93.29
81545;BME280;70990;50.618;7.346;2023-08-01T01:14:55;96658.03;;;15.76;92.54
81545;BME280;70990;50.618;7.346;2023-08-01T01:17:22;96645.78;;;15.67;92.76
81545;BME280;70990;50.618;7.346;2023-08-01T01:19:49;96648.91;;;15.75;93.08
81545;BME280;70990;50.618;7.346;2023-08-01T01:22:16;96642.66;;;15.80;92.57
81545;BME280;70990;50.618;7.346;2023-08-01T01:24:44;96628.88;;;15.71;92.91
81545;BME280;70990;50.618;7.346;2023-08-01T01:27:12;96620.97;;;15.69;92.85
81545;BME280;70990;50.618;7.346;2023-08-01T01:29:39;96623.72;;;15.84;92.61
81545;BME280;70990;50.618;7.346;2023-08-01T01:32:07;96615.13;;;15.88;92.37
81545;BME280;70990;50.618;7.346;2023-08-01T01:34:35;96593.38;;;15.86;92.02
81545;BME280;70990;50.618;7.346;2023-08-01T01:37:01;96585.00;;;15.86;92.32
81545;BME280;70990;50.618;7.346;2023-08-01T01:39:31;96579.84;;;15.79;92.69
81545;BME280;70990;50.618;7.346;2023-08-01T01:41:57;96586.69;;;15.78;92.98
81545;BME280;70990;50.618;7.346;2023-08-01T01:44:24;96569.59;;;15.70;93.44
81545;BME280;70990;50.618;7.346;2023-08-01T01:46:51;96560.91;;;15.63;94.13
81545;BME280;70990;50.618;7.346;2023-08-01T01:49:17;96570.50;;;15.62;94.48
81545;BME280;70990;50.618;7.346;2023-08-01T01:51:44;96561.41;;;15.61;94.49
81545;BME280;70990;50.618;7.346;2023-08-01T01:54:10;96558.63;;;15.61;94.74
81545;BME280;70990;50.618;7.346;2023-08-01T01:56:37;96559.66;;;15.64;94.48
81545;BME280;70990;50.618;7.346;2023-08-01T01:59:04;96547.50;;;15.61;94.42
81545;BME280;70990;50.618;7.346;2023-08-01T02:01:31;96543.44;;;15.62;94.36
81545;BME280;70990;50.618;7.346;2023-08-01T02:03:59;96541.47;;;15.68;94.80
81545;BME280;70990;50.618;7.346;2023-08-01T02:06:25;96539.88;;;15.62;94.82
81545;BME280;70990;50.618;7.346;2023-08-01T02:08:52;96533.13;;;15.68;94.30
81545;BME280;70990;50.618;7.346;2023-08-01T02:11:19;96532.69;;;15.76;94.16
81545;BME280;70990;50.618;7.346;2023-08-01T02:13:46;96532.00;;;15.81;93.94
81545;BME280;70990;50.618;7.346;2023-08-01T02:16:13;96517.88;;;15.64;94.13
81545;BME280;70990;50.618;7.346;2023-08-01T02:18:40;96529.72;;;15.79;93.77
81545;BME280;70990;50.618;7.346;2023-08-01T02:21:07;96528.94;;;15.79;93.73
81545;BME280;70990;50.618;7.346;2023-08-01T02:23:36;96517.09;;;15.84;93.96
81545;BME280;70990;50.618;7.346;2023-08-01T02:26:02;96514.81;;;15.82;94.28
81545;BME280;70990;50.618;7.346;2023-08-01T02:28:29;96530.91;;;15.72;93.60
81545;BME280;70990;50.618;7.346;2023-08-01T02:31:04;96542.09;;;15.78;94.50
81545;BME280;70990;50.618;7.346;2023-08-01T02:33:31;96543.34;;;15.77;94.34
81545;BME280;70990;50.618;7.346;2023-08-01T02:35:58;96553.03;;;15.82;94.25
81545;BME280;70990;50.618;7.346;2023-08-01T02:38:24;96558.53;;;15.76;95.01
81545;BME280;70990;50.618;7.346;2023-08-01T02:40:51;96551.16;;;15.73;94.79
81545;BME280;70990;50.618;7.346;2023-08-01T02:43:17;96547.81;;;15.69;94.37
81545;BME280;70990;50.618;7.346;2023-08-01T02:45:44;96547.34;;;15.70;94.82
81545;BME280;70990;50.618;7.346;2023-08-01T02:48:10;96552.28;;;15.61;93.99
81545;BME280;70990;50.618;7.346;2023-08-01T02:50:37;96549.56;;;15.66;94.27
81545;BME280;70990;50.618;7.346;2023-08-01T02:53:04;96543.50;;;15.68;94.50
81545;BME280;70990;50.618;7.346;2023-08-01T02:55:32;96542.66;;;15.62;93.72
81545;BME280;70990;50.618;7.346;2023-08-01T02:57:58;96536.34;;;15.61;94.67
81545;BME280;70990;50.618;7.346;2023-08-01T03:00:25;96549.16;;;15.73;94.03
81545;BME280;70990;50.618;7.346;2023-08-01T03:02:52;96542.75;;;15.67;93.97
81545;BME280;70990;50.618;7.346;2023-08-01T03:05:19;96547.81;;;15.69;94.15
81545;BME280;70990;50.618;7.346;2023-08-01T03:07:46;96540.81;;;15.53;94.70
81545;BME280;70990;50.618;7.346;2023-08-01T03:10:12;96548.22;;;15.62;94.91
81545;BME280;70990;50.618;7.346;2023-08-01T03:12:48;96558.75;;;15.52;94.81
81545;BME280;70990;50.618;7.346;2023-08-01T03:15:15;96566.63;;;15.54;94.96
81545;BME280;70990;50.618;7.346;2023-08-01T03:17:42;96557.13;;;15.46;94.83
81545;BME280;70990;50.618;7.346;2023-08-01T03:20:08;96552.78;;;15.45;94.26
81545;BME280;70990;50.618;7.346;2023-08-01T03:22:35;96572.34;;;15.30;94.05
81545;BME280;70990;50.618;7.346;2023-08-01T03:25:02;96555.13;;;15.11;93.24
81545;BME280;70990;50.618;7.346;2023-08-01T03:27:29;96547.66;;;15.03;93.68
81545;BME280;70990;50.618;7.346;2023-08-01T03:29:55;96550.00;;;14.89;93.85
81545;BME280;70990;50.618;7.346;2023-08-01T03:32:21;96562.84;;;14.87;93.83
81545;BME280;70990;50.618;7.346;2023-08-01T03:34:48;96577.81;;;14.75;93.69
81545;BME280;70990;50.618;7.346;2023-08-01T03:37:16;96613.31;;;14.65;94.39
81545;BME280;70990;50.618;7.346;2023-08-01T03:39:42;96623.44;;;14.68;94.47
81545;BME280;70990;50.618;7.346;2023-08-01T03:42:09;96619.34;;;14.49;94.72
81545;BME280;70990;50.618;7.346;2023-08-01T03:44:35;96613.88;;;14.55;94.61
81545;BME280;70990;50.618;7.346;2023-08-01T03:47:02;96619.25;;;14.58;94.60
81545;BME280;70990;50.618;7.346;2023-08-01T03:49:29;96614.66;;;14.55;95.18
81545;BME280;70990;50.618;7.346;2023-08-01T03:51:55;96613.09;;;14.39;94.90
81545;BME280;70990;50.618;7.346;2023-08-01T03:54:25;96614.63;;;14.40;94.18
81545;BME280;70990;50.618;7.346;2023-08-01T03:56:52;96625.75;;;14.40;94.05
81545;BME280;70990;50.618;7.346;2023-08-01T03:59:18;96623.13;;;14.37;94.05
81545;BME280;70990;50.618;7.346;2023-08-01T04:01:45;96614.03;;;14.36;93.76
81545;BME280;70990;50.618;7.346;2023-08-01T04:04:11;96624.84;;;14.34;93.32
81545;BME280;70990;50.618;7.346;2023-08-01T04:06:38;96626.28;;;14.30;92.96
81545;BME280;70990;50.618;7.346;2023-08-01T04:09:05;96615.44;;;14.17;93.26
81545;BME280;70990;50.618;7.346;2023-08-01T04:11:32;96632.03;;;14.26;93.49
81545;BME280;70990;50.618;7.346;2023-08-01T04:13:58;96617.25;;;14.20;92.97
81545;BME280;70990;50.618;7.346;2023-08-01T04:16:25;96625.28;;;14.18;92.49
81545;BME280;70990;50.618;7.346;2023-08-01T04:18:52;96621.28;;;14.19;92.35
81545;BME280;70990;50.618;7.346;2023-08-01T04:21:18;96618.13;;;14.26;92.15
81545;BME280;70990;50.618;7.346;2023-08-01T04:23:45;96604.03;;;14.15;92.60
81545;BME280;70990;50.618;7.346;2023-08-01T04:26:11;96605.97;;;14.24;92.72
81545;BME280;70990;50.618;7.346;2023-08-01T04:28:38;96599.16;;;14.10;92.22
81545;BME280;70990;50.618;7.346;2023-08-01T04:31:05;96616.38;;;14.14;91.88
81545;BME280;70990;50.618;7.346;2023-08-01T04:33:31;96621.63;;;14.12;92.00
81545;BME280;70990;50.618;7.346;2023-08-01T04:35:58;96614.75;;;14.07;92.06
81545;BME280;70990;50.618;7.346;2023-08-01T04:38:24;96625.69;;;14.11;91.96
81545;BME280;70990;50.618;7.346;2023-08-01T04:40:51;96628.94;;;14.09;91.87
81545;BME280;70990;50.618;7.346;2023-08-01T04:43:17;96630.63;;;14.07;91.71
81545;BME280;70990;50.618;7.346;2023-08-01T04:45:45;96640.59;;;13.99;92.47
81545;BME280;70990;50.618;7.346;2023-08-01T04:48:14;96650.53;;;14.05;91.66
81545;BME280;70990;50.618;7.346;2023-08-01T04:50:40;96663.09;;;14.01;91.12
81545;BME280;70990;50.618;7.346;2023-08-01T04:53:07;96662.72;;;14.08;92.03
81545;BME280;70990;50.618;7.346;2023-08-01T04:55:33;96663.75;;;13.96;92.21
81545;BME280;70990;50.618;7.346;2023-08-01T04:58:00;96660.78;;;13.99;92.19
81545;BME280;70990;50.618;7.346;2023-08-01T05:00:27;96666.28;;;14.08;92.53
81545;BME280;70990;50.618;7.346;2023-08-01T05:02:54;96672.59;;;14.09;91.80
81545;BME280;70990;50.618;7.346;2023-08-01T05:05:21;96671.72;;;14.03;91.91
81545;BME280;70990;50.618;7.346;2023-08-01T05:07:49;96662.72;;;14.08;91.85
81545;BME280;70990;50.618;7.346;2023-08-01T05:10:16;96666.47;;;14.05;91.16
81545;BME280;70990;50.618;7.346;2023-08-01T05:12:43;96665.97;;;14.06;92.51
81545;BME280;70990;50.618;7.346;2023-08-01T05:15:10;96666.81;;;13.98;92.63
81545;BME280;70990;50.618;7.346;2023-08-01T05:17:36;96678.97;;;14.00;92.61
81545;BME280;70990;50.618;7.346;2023-08-01T05:20:04;96672.50;;;14.03;92.11
81545;BME280;70990;50.618;7.346;2023-08-01T05:22:30;96672.38;;;13.98;92.52
81545;BME280;70990;50.618;7.346;2023-08-01T05:24:57;96676.69;;;13.99;92.49
81545;BME280;70990;50.618;7.346;2023-08-01T05:27:24;96678.59;;;13.93;91.81
81545;BME280;70990;50.618;7.346;2023-08-01T05:29:51;96685.53;;;13.88;92.51
81545;BME280;70990;50.618;7.346;2023-08-01T05:32:17;96688.84;;;14.01;92.58
81545;BME280;70990;50.618;7.346;2023-08-01T05:34:44;96680.63;;;14.07;91.32
81545;BME280;70990;50.618;7.346;2023-08-01T05:37:10;96684.06;;;14.02;92.05
81545;BME280;70990;50.618;7.346;2023-08-01T05:39:37;96681.38;;;13.93;91.50
81545;BME280;70990;50.618;7.346;2023-08-01T05:42:04;96689.31;;;14.00;91.68
81545;BME280;70990;50.618;7.346;2023-08-01T05:44:30;96691.56;;;14.10;91.34
81545;BME280;70990;50.618;7.346;2023-08-01T05:46:57;96694.28;;;14.20;92.03
81545;BME280;70990;50.618;7.346;2023-08-01T05:49:24;96701.38;;;14.21;91.15
81545;BME280;70990;50.618;7.346;2023-08-01T05:51:50;96683.41;;;14.07;90.67
81545;BME280;70990;50.618;7.346;2023-08-01T05:54:17;96686.19;;;14.07;90.98
81545;BME280;70990;50.618;7.346;2023-08-01T05:56:43;96674.50;;;14.03;90.88
81545;BME280;70990;50.618;7.346;2023-08-01T05:59:10;96674.31;;;14.06;91.34
81545;BME280;70990;50.618;7.346;2023-08-01T06:01:37;96692.09;;;14.00;91.19
81545;BME280;70990;50.618;7.346;2023-08-01T06:04:03;96683.50;;;13.98;91.54
81545;BME280;70990;50.618;7.346;2023-08-01T06:06:30;96689.97;;;13.95;91.98
81545;BME280;70990;50.618;7.346;2023-08-01T06:08:58;96683.50;;;13.98;91.52
81545;BME280;70990;50.618;7.346;2023-08-01T06:11:25;96689.63;;;14.02;91.56
81545;BME280;70990;50.618;7.346;2023-08-01T06:13:52;96695.94;;;14.02;90.96
81545;BME280;70990;50.618;7.346;2023-08-01T06:16:18;96691.56;;;14.10;91.02
81545;BME280;70990;50.618;7.346;2023-08-01T06:18:45;96688.56;;;14.23;90.89
81545;BME280;70990;50.618;7.346;2023-08-01T06:21:12;96688.63;;;14.52;89.41
81545;BME280;70990;50.618;7.346;2023-08-01T06:23:39;96687.47;;;14.44;88.86
81545;BME280;70990;50.618;7.346;2023-08-01T06:26:05;96694.75;;;14.42;88.95
81545;BME280;70990;50.618;7.346;2023-08-01T06:28:32;96688.19;;;14.30;89.37
81545;BME280;70990;50.618;7.346;2023-08-01T06:30:59;96694.09;;;14.23;89.36
81545;BME280;70990;50.618;7.346;2023-08-01T06:33:26;96710.59;;;14.27;89.01
81545;BME280;70990;50.618;7.346;2023-08-01T06:35:53;96708.16;;;14.43;87.33
81545;BME280;70990;50.618;7.346;2023-08-01T06:38:19;96697.66;;;14.47;88.13
81545;BME280;70990;50.618;7.346;2023-08-01T06:40:46;96698.41;;;14.63;88.41
81545;BME280;70990;50.618;7.346;2023-08-01T06:43:12;96712.81;;;14.76;87.04
81545;BME280;70990;50.618;7.346;2023-08-01T06:45:39;96701.53;;;14.79;86.26
81545;BME280;70990;50.618;7.346;2023-08-01T06:48:09;96707.38;;;14.96;86.77
81545;BME280;70990;50.618;7.346;2023-08-01T06:50:36;96715.91;;;15.07;85.17
81545;BME280;70990;50.618;7.346;2023-08-01T06:53:15;96714.47;;;15.12;86.40
81545;BME280;70990;50.618;7.346;2023-08-01T06:55:49;96722.53;;;15.24;85.87
81545;BME280;70990;50.618;7.346;2023-08-01T06:58:40;96683.13;;;14.97;84.21
81545;BME280;70990;50.618;7.346;2023-08-01T07:01:06;96687.91;;;14.96;84.36
81545;BME280;70990;50.618;7.346;2023-08-01T07:03:33;96724.53;;;15.39;83.62
81545;BME280;70990;50.618;7.346;2023-08-01T07:06:00;96731.44;;;15.43;84.48
81545;BME280;70990;50.618;7.346;2023-08-01T07:08:26;96734.25;;;15.28;83.39
81545;BME280;70990;50.618;7.346;2023-08-01T07:10:53;96745.06;;;15.26;82.62
81545;BME280;70990;50.618;7.346;2023-08-01T07:13:20;96732.78;;;15.48;83.04
81545;BME280;70990;50.618;7.346;2023-08-01T07:15:46;96739.63;;;15.61;83.31
81545;BME280;70990;50.618;7.346;2023-08-01T07:18:13;96735.63;;;15.68;81.90
81545;BME280;70990;50.618;7.346;2023-08-01T07:20:40;96723.69;;;15.32;82.59
81545;BME280;70990;50.618;7.346;2023-08-01T07:23:06;96743.16;;;15.47;82.55
81545;BME280;70990;50.618;7.346;2023-08-01T07:25:33;96756.56;;;15.78;81.77
81545;BME280;70990;50.618;7.346;2023-08-01T07:27:59;96737.38;;;15.80;81.21
81545;BME280;70990;50.618;7.346;2023-08-01T07:30:26;96754.16;;;15.86;80.95
81545;BME280;70990;50.618;7.346;2023-08-01T07:32:52;96757.84;;;15.62;83.14
81545;BME280;70990;50.618;7.346;2023-08-01T07:35:19;96760.13;;;15.79;80.77
81545;BME280;70990;50.618;7.346;2023-08-01T07:37:45;96772.91;;;15.56;81.95
81545;BME280;70990;50.618;7.346;2023-08-01T07:40:12;96773.88;;;15.38;82.40
81545;BME280;70990;50.618;7.346;2023-08-01T07:42:38;96776.94;;;15.11;83.83
81545;BME280;70990;50.618;7.346;2023-08-01T07:45:08;96791.75;;;14.93;85.62
81545;BME280;70990;50.618;7.346;2023-08-01T07:47:38;96791.09;;;14.83;87.05
81545;BME280;70990;50.618;7.346;2023-08-01T07:50:05;96788.50;;;14.80;86.79
81545;BME280;70990;50.618;7.346;2023-08-01T07:52:32;96784.91;;;14.65;87.31
81545;BME280;70990;50.618;7.346;2023-08-01T07:54:58;96792.72;;;14.51;86.69
81545;BME280;70990;50.618;7.346;2023-08-01T07:57:27;96792.25;;;14.53;88.82
81545;BME280;70990;50.618;7.346;2023-08-01T07:59:54;96794.47;;;14.49;88.35
81545;BME280;70990;50.618;7.346;2023-08-01T08:02:20;96796.16;;;14.46;88.58
81545;BME280;70990;50.618;7.346;2023-08-01T08:04:47;96806.72;;;14.33;88.57
81545;BME280;70990;50.618;7.346;2023-08-01T08:07:14;96788.47;;;14.18;88.83
81545;BME280;70990;50.618;7.346;2023-08-01T08:09:41;96744.94;;;13.91;88.52
81545;BME280;70990;50.618;7.346;2023-08-01T08:12:08;96793.59;;;14.34;88.67
81545;BME280;70990;50.618;7.346;2023-08-01T08:14:34;96807.44;;;14.43;90.17
81545;BME280;70990;50.618;7.346;2023-08-01T08:17:01;96805.78;;;14.36;88.51
81545;BME280;70990;50.618;7.346;2023-08-01T08:19:28;96793.13;;;14.59;90.94
81545;BME280;70990;50.618;7.346;2023-08-01T08:21:54;96796.81;;;14.65;88.22
81545;BME280;70990;50.618;7.346;2023-08-01T08:24:21;96806.09;;;15.15;90.82
81545;BME280;70990;50.618;7.346;2023-08-01T08:26:51;96791.16;;;15.27;87.65
81545;BME280;70990;50.618;7.346;2023-08-01T08:29:17;96817.25;;;15.45;86.30
81545;BME280;70990;50.618;7.346;2023-08-01T08:31:44;96803.06;;;15.43;85.22
81545;BME280;70990;50.618;7.346;2023-08-01T08:34:10;96799.69;;;15.68;87.01
81545;BME280;70990;50.618;7.346;2023-08-01T08:36:37;96801.53;;;15.86;85.89
81545;BME280;70990;50.618;7.346;2023-08-01T08:39:04;96794.41;;;15.70;85.85
81545;BME280;70990;50.618;7.346;2023-08-01T08:41:39;96800.34;;;15.92;84.40
81545;BME280;70990;50.618;7.346;2023-08-01T08:44:14;96808.03;;;15.97;83.51
81545;BME280;70990;50.618;7.346;2023-08-01T08:46:42;96795.50;;;16.07;81.31
81545;BME280;70990;50.618;7.346;2023-08-01T08:49:11;96803.13;;;16.27;82.95
81545;BME280;70990;50.618;7.346;2023-08-01T08:51:38;96796.94;;;16.18;81.58
81545;BME280;70990;50.618;7.346;2023-08-01T08:54:05;96817.16;;;16.33;81.23
81545;BME280;70990;50.618;7.346;2023-08-01T08:56:33;96804.00;;;16.19;82.12
81545;BME280;70990;50.618;7.346;2023-08-01T08:59:00;96812.88;;;16.17;82.54
81545;BME280;70990;50.618;7.346;2023-08-01T09:01:27;96821.91;;;16.12;83.83
81545;BME280;70990;50.618;7.346;2023-08-01T09:03:54;96821.56;;;15.90;82.07
81545;BME280;70990;50.618;7.346;2023-08-01T09:06:32;96819.94;;;15.83;83.83
81545;BME280;70990;50.618;7.346;2023-08-01T09:09:12;96833.19;;;15.88;82.96
81545;BME280;70990;50.618;7.346;2023-08-01T09:11:48;96832.63;;;16.34;83.91
81545;BME280;70990;50.618;7.346;2023-08-01T09:14:15;96815.56;;;16.46;80.16
81545;BME280;70990;50.618;7.346;2023-08-01T09:16:42;96837.66;;;16.50;76.54
81545;BME280;70990;50.618;7.346;2023-08-01T09:19:21;96819.72;;;16.71;78.44
81545;BME280;70990;50.618;7.346;2023-08-01T09:21:48;96827.13;;;17.20;77.79
81545;BME280;70990;50.618;7.346;2023-08-01T09:24:17;96823.63;;;17.25;76.69
81545;BME280;70990;50.618;7.346;2023-08-01T09:26:47;96828.63;;;16.96;74.68
81545;BME280;70990;50.618;7.346;2023-08-01T09:29:16;96827.66;;;16.78;78.45
81545;BME280;70990;50.618;7.346;2023-08-01T09:31:43;96827.25;;;16.65;76.56
81545;BME280;70990;50.618;7.346;2023-08-01T09:34:21;96830.97;;;16.42;75.15
81545;BME280;70990;50.618;7.346;2023-08-01T09:36:49;96840.00;;;16.37;77.76
81545;BME280;70990;50.618;7.346;2023-08-01T09:39:18;96833.38;;;16.69;77.01
81545;BME280;70990;50.618;7.346;2023-08-01T09:41:45;96837.16;;;16.86;76.92
81545;BME280;70990;50.618;7.346;2023-08-01T09:44:15;96828.81;;;16.51;73.31
81545;BME280;70990;50.618;7.346;2023-08-01T09:46:42;96853.72;;;16.55;72.21
81545;BME280;70990;50.618;7.346;2023-08-01T09:49:10;96857.47;;;16.52;70.67
81545;BME280;70990;50.618;7.346;2023-08-01T09:51:50;96852.06;;;16.63;72.33
81545;BME280;70990;50.618;7.346;2023-08-01T09:54:17;96855.41;;;16.87;70.95
81545;BME280;70990;50.618;7.346;2023-08-01T09:56:45;96851.09;;;17.07;69.85
81545;BME280;70990;50.618;7.346;2023-08-01T09:59:12;96849.56;;;16.85;70.10
81545;BME280;70990;50.618;7.346;2023-08-01T10:01:40;96861.81;;;17.14;72.01
81545;BME280;70990;50.618;7.346;2023-08-01T10:04:08;96856.88;;;17.03;71.79
81545;BME280;70990;50.618;7.346;2023-08-01T10:06:37;96844.56;;;17.36;71.14
81545;BME280;70990;50.618;7.346;2023-08-01T10:09:05;96841.19;;;17.78;69.47
81545;BME280;70990;50.618;7.346;2023-08-01T10:11:34;96827.47;;;18.11;68.89
81545;BME280;70990;50.618;7.346;2023-08-01T10:14:05;96834.13;;;17.88;70.04
81545;BME280;70990;50.618;7.346;2023-08-01T10:16:34;96817.66;;;17.38;69.35
81545;BME280;70990;50.618;7.346;2023-08-01T10:19:02;96832.13;;;17.62;69.06
81545;BME280;70990;50.618;7.346;2023-08-01T10:21:29;96828.19;;;18.06;66.87
81545;BME280;70990;50.618;7.346;2023-08-01T10:23:58;96795.41;;;18.06;66.51
81545;BME280;70990;50.618;7.346;2023-08-01T10:26:25;96825.56;;;18.28;65.86
81545;BME280;70990;50.618;7.346;2023-08-01T10:28:52;96846.44;;;17.70;66.56
81545;BME280;70990;50.618;7.346;2023-08-01T10:31:19;96851.78;;;17.22;73.91
81545;BME280;70990;50.618;7.346;2023-08-01T10:33:48;96855.38;;;16.47;75.84
81545;BME280;70990;50.618;7.346;2023-08-01T10:36:22;96854.25;;;16.24;77.97
81545;BME280;70990;50.618;7.346;2023-08-01T10:38:55;96853.88;;;16.31;79.74
81545;BME280;70990;50.618;7.346;2023-08-01T10:41:29;96836.63;;;16.47;78.81
81545;BME280;70990;50.618;7.346;2023-08-01T10:44:13;96828.03;;;16.51;76.49
81545;BME280;70990;50.618;7.346;2023-08-01T10:49:21;96828.56;;;17.10;75.70
81545;BME280;70990;50.618;7.346;2023-08-01T10:51:47;96833.06;;;17.28;75.51
81545;BME280;70990;50.618;7.346;2023-08-01T10:54:23;96843.72;;;17.55;72.58
81545;BME280;70990;50.618;7.346;2023-08-01T10:56:52;96853.16;;;17.84;74.01
81545;BME280;70990;50.618;7.346;2023-08-01T10:59:19;96847.75;;;17.74;70.96
81545;BME280;70990;50.618;7.346;2023-08-01T11:01:52;96844.66;;;18.35;71.67
81545;BME280;70990;50.618;7.346;2023-08-01T11:04:21;96850.00;;;18.76;70.23
81545;BME280;70990;50.618;7.346;2023-08-01T11:06:49;96850.78;;;18.39;70.08
81545;BME280;70990;50.618;7.346;2023-08-01T11:09:18;96859.41;;;17.99;74.57
81545;BME280;70990;50.618;7.346;2023-08-01T11:11:49;96854.22;;;17.86;74.41
81545;BME280;70990;50.618;7.346;2023-08-01T11:14:22;96857.88;;;17.46;74.50
81545;BME280;70990;50.618;7.346;2023-08-01T11:16:50;96861.84;;;18.17;76.60
81545;BME280;70990;50.618;7.346;2023-08-01T11:19:27;96868.47;;;18.25;67.08
81545;BME280;70990;50.618;7.346;2023-08-01T11:21:56;96844.94;;;18.43;69.97
81545;BME280;70990;50.618;7.346;2023-08-01T11:24:24;96849.22;;;18.75;68.89
81545;BME280;70990;50.618;7.346;2023-08-01T11:26:53;96859.22;;;18.93;65.80
81545;BME280;70990;50.618;7.346;2023-08-01T11:29:20;96863.69;;;19.16;64.91
81545;BME280;70990;50.618;7.346;2023-08-01T11:31:57;96862.63;;;19.08;63.00
81545;BME280;70990;50.618;7.346;2023-08-01T11:34:24;96834.34;;;19.06;63.51
81545;BME280;70990;50.618;7.346;2023-08-01T11:36:52;96862.19;;;19.26;62.15
81545;BME280;70990;50.618;7.346;2023-08-01T11:39:19;96848.56;;;20.01;63.30
81545;BME280;70990;50.618;7.346;2023-08-01T11:41:46;96851.63;;;20.47;62.93
81545;BME280;70990;50.618;7.346;2023-08-01T11:44:12;96855.69;;;19.91;62.45
81545;BME280;70990;50.618;7.346;2023-08-01T11:46:39;96852.03;;;19.34;61.75
81545;BME280;70990;50.618;7.346;2023-08-01T11:49:08;96857.78;;;19.03;63.01
81545;BME280;70990;50.618;7.346;2023-08-01T11:51:42;96853.81;;;18.73;62.99
81545;BME280;70990;50.618;7.346;2023-08-01T11:54:09;96863.41;;;18.61;64.09
81545;BME280;70990;50.618;7.346;2023-08-01T11:56:37;96860.25;;;18.47;64.21
81545;BME280;70990;50.618;7.346;2023-08-01T11:59:11;96858.31;;;18.22;66.07
81545;BME280;70990;50.618;7.346;2023-08-01T12:01:43;96852.88;;;17.82;68.02
81545;BME280;70990;50.618;7.346;2023-08-01T12:04:10;96848.66;;;17.92;70.05
81545;BME280;70990;50.618;7.346;2023-08-01T12:06:38;96836.47;;;17.63;69.37
81545;BME280;70990;50.618;7.346;2023-08-01T12:09:11;96880.88;;;17.87;71.38
81545;BME280;70990;50.618;7.346;2023-08-01T12:11:39;96876.19;;;17.73;70.25
81545;BME280;70990;50.618;7.346;2023-08-01T12:14:14;96888.97;;;17.80;70.07
81545;BME280;70990;50.618;7.346;2023-08-01T12:16:50;96858.34;;;17.45;70.03
81545;BME280;70990;50.618;7.346;2023-08-01T12:19:18;96901.28;;;17.67;70.23
81545;BME280;70990;50.618;7.346;2023-08-01T12:21:45;96894.56;;;17.80;69.86
81545;BME280;70990;50.618;7.346;2023-08-01T12:24:12;96875.00;;;17.59;68.82
81545;BME280;70990;50.618;7.346;2023-08-01T12:26:39;96889.31;;;18.24;68.41
81545;BME280;70990;50.618;7.346;2023-08-01T12:29:09;96894.78;;;18.39;66.44
81545;BME280;70990;50.618;7.346;2023-08-01T12:31:38;96904.72;;;18.77;65.65
81545;BME280;70990;50.618;7.346;2023-08-01T12:34:05;96899.16;;;18.45;66.11
81545;BME280;70990;50.618;7.346;2023-08-01T12:36:35;96904.16;;;18.67;66.86
81545;BME280;70990;50.618;7.346;2023-08-01T12:39:01;96899.34;;;18.05;67.20
81545;BME280;70990;50.618;7.346;2023-08-01T12:41:44;96914.59;;;18.04;67.54
81545;BME280;70990;50.618;7.346;2023-08-01T12:44:11;96912.59;;;18.10;67.40
81545;BME280;70990;50.618;7.346;2023-08-01T12:46:37;96906.19;;;18.35;69.29
81545;BME280;70990;50.618;7.346;2023-08-01T12:49:05;96918.19;;;18.10;67.47
81545;BME280;70990;50.618;7.346;2023-08-01T12:51:31;96913.59;;;18.38;69.43
81545;BME280;70990;50.618;7.346;2023-08-01T12:53:58;96914.59;;;18.67;68.58
81545;BME280;70990;50.618;7.346;2023-08-01T12:56:25;96908.03;;;18.44;65.39
81545;BME280;70990;50.618;7.346;2023-08-01T12:58:51;96910.72;;;18.27;66.87
81545;BME280;70990;50.618;7.346;2023-08-01T13:01:18;96891.06;;;18.16;66.74
81545;BME280;70990;50.618;7.346;2023-08-01T13:03:44;96910.16;;;17.92;66.66
81545;BME280;70990;50.618;7.346;2023-08-01T13:06:12;96911.19;;;17.68;68.18